Stanton, Tennessee
Current Conditions -  °F | °C
As of 2:50 PM on Thursday 27 Nov 2014 (Local Time) from KNQA Reporting Station
Broken Clouds Broken Clouds  
Wind Chill: 40°   Ceiling: 3200
Heat Index: 43°   Visibility: 10mi
Dew Point: 28°   Wind: 5mph
Humidity: 57%   Direction: 20°NNE
Pressure: 30.47"   Gusts: NA
Location:  35.46°N, 89.4°W
Report Text: KNQA 272050Z 02004KT 10SM BKN032 06/M02 A3047
Loading
Personal Weather Stations






























Interactive Weather Map New forecast layout! Learn more

10-Day Weather Forecast

Advertisements
Track Severe Weather on mobile